createdAt,value
2018-08-23T00:00:29.557Z,1006.4
2018-08-23T00:01:31.663Z,1006.4
2018-08-23T00:02:34.144Z,1006.4
2018-08-23T00:03:36.990Z,1006.4
2018-08-23T00:04:39.033Z,1006.4
2018-08-23T00:05:41.130Z,1006.4
2018-08-23T00:06:43.211Z,1006.4
2018-08-23T00:07:45.324Z,1006.4
2018-08-23T00:08:47.415Z,1006.4
2018-08-23T00:09:50.366Z,1006.4
2018-08-23T00:10:52.815Z,1006.4
2018-08-23T00:11:54.907Z,1006.4
2018-08-23T00:12:57.020Z,1006.4
2018-08-23T00:13:59.217Z,1006.3
2018-08-23T00:15:01.210Z,1006.4
2018-08-23T00:16:03.315Z,1006.3
2018-08-23T00:17:05.409Z,1006.3
2018-08-23T00:18:08.203Z,1006.3
2018-08-23T00:19:10.309Z,1006.3
2018-08-23T00:20:13.006Z,1006.3
2018-08-23T00:21:15.083Z,1006.3
2018-08-23T00:22:17.202Z,1006.3
2018-08-23T00:23:19.284Z,1006.3
2018-08-23T00:24:21.385Z,1006.3
2018-08-23T00:25:23.901Z,1006.3
2018-08-23T00:26:25.990Z,1006.2
2018-08-23T00:27:28.763Z,1006.2
2018-08-23T00:28:30.846Z,1006.3
2018-08-23T00:29:32.951Z,1006.3
2018-08-23T00:30:35.342Z,1006.3
2018-08-23T00:31:37.745Z,1006.2
2018-08-23T00:32:39.852Z,1006.2
2018-08-23T00:33:42.330Z,1006.2
2018-08-23T00:34:44.438Z,1006.2
2018-08-23T00:35:46.534Z,1006.2
2018-08-23T00:36:48.640Z,1006.2
2018-08-23T00:37:50.726Z,1006.2
2018-08-23T00:38:52.834Z,1006.2
2018-08-23T00:39:54.940Z,1006.2
2018-08-23T00:40:57.029Z,1006.2
2018-08-23T00:41:59.119Z,1006.1
2018-08-23T00:43:01.613Z,1006.1
2018-08-23T00:44:04.094Z,1006.1
2018-08-23T00:45:06.195Z,1006.1
2018-08-23T00:46:08.301Z,1006.1
2018-08-23T00:47:10.382Z,1006.1
2018-08-23T00:48:12.789Z,1006.1
2018-08-23T00:49:15.156Z,1006.1
2018-08-23T00:50:17.265Z,1006.1
2018-08-23T00:51:19.346Z,1006.1
2018-08-23T00:52:21.444Z,1006.1
2018-08-23T00:53:23.549Z,1006.1
2018-08-23T00:54:25.653Z,1006.1
2018-08-23T00:55:27.759Z,1006.1
2018-08-23T00:56:30.260Z,1006.1
2018-08-23T00:57:32.348Z,1006.1
2018-08-23T00:58:34.440Z,1006.1
2018-08-23T00:59:36.543Z,1006.1
2018-08-23T01:00:38.646Z,1006
2018-08-23T01:01:40.736Z,1006.1
2018-08-23T01:02:42.851Z,1006.1
2018-08-23T01:03:44.948Z,1006.1
2018-08-23T01:04:47.025Z,1006.1
2018-08-23T01:05:49.519Z,1006.1
2018-08-23T01:06:52.308Z,1006
2018-08-23T01:07:54.427Z,1006
2018-08-23T01:08:56.516Z,1006
2018-08-23T01:09:58.611Z,1006
2018-08-23T01:11:00.702Z,1006
2018-08-23T01:12:02.811Z,1006
2018-08-23T01:13:04.887Z,1006
2018-08-23T01:14:07.002Z,1006
2018-08-23T01:15:09.102Z,1006
2018-08-23T01:16:11.200Z,1006
2018-08-23T01:17:13.298Z,1005.9
2018-08-23T01:18:15.399Z,1006
2018-08-23T01:19:17.487Z,1006
2018-08-23T01:20:19.580Z,1005.9
2018-08-23T01:21:21.676Z,1005.9
2018-08-23T01:22:24.057Z,1006
2018-08-23T01:23:26.172Z,1005.9
2018-08-23T01:24:28.267Z,1005.9
2018-08-23T01:25:30.367Z,1005.9
2018-08-23T01:26:32.756Z,1005.9
2018-08-23T01:27:34.851Z,1005.9
2018-08-23T01:28:37.249Z,1005.9
2018-08-23T01:29:39.612Z,1005.9
2018-08-23T01:30:41.702Z,1005.8
2018-08-23T01:31:44.198Z,1005.8
2018-08-23T01:32:46.307Z,1005.8
2018-08-23T01:33:48.411Z,1005.8
2018-08-23T01:34:50.507Z,1005.8
2018-08-23T01:35:52.606Z,1005.8
2018-08-23T01:36:54.972Z,1005.8
2018-08-23T01:37:57.090Z,1005.8
2018-08-23T01:38:59.490Z,1005.8
2018-08-23T01:40:01.590Z,1005.8
2018-08-23T01:41:03.694Z,1005.7
2018-08-23T01:42:05.782Z,1005.7
2018-08-23T01:43:08.174Z,1005.7
2018-08-23T01:44:10.354Z,1005.7
2018-08-23T01:45:12.452Z,1005.7
2018-08-23T01:46:14.573Z,1005.7
2018-08-23T01:47:16.674Z,1005.7
2018-08-23T01:48:18.780Z,1005.6
2018-08-23T01:49:21.170Z,1005.7
2018-08-23T01:50:23.660Z,1005.6
2018-08-23T01:51:25.733Z,1005.6
2018-08-23T01:52:27.851Z,1005.5
2018-08-23T01:53:30.239Z,1005.5
2018-08-23T01:54:32.339Z,1005.6
2018-08-23T01:55:34.445Z,1005.5
2018-08-23T01:56:36.535Z,1005.5
2018-08-23T01:57:38.640Z,1005.5
2018-08-23T01:58:41.007Z,1005.5
2018-08-23T01:59:43.090Z,1005.5
2018-08-23T02:00:45.180Z,1005.4
2018-08-23T02:01:47.276Z,1005.5
2018-08-23T02:02:49.352Z,1005.5
2018-08-23T02:03:51.458Z,1005.4
2018-08-23T02:04:53.543Z,1005.4
2018-08-23T02:05:55.636Z,1005.4
2018-08-23T02:06:57.741Z,1005.4
2018-08-23T02:08:00.152Z,1005.4
2018-08-23T02:09:02.547Z,1005.3
2018-08-23T02:10:04.955Z,1005.4
2018-08-23T02:11:07.317Z,1005.4
2018-08-23T02:12:09.428Z,1005.3
2018-08-23T02:13:12.137Z,1005.3
2018-08-23T02:14:14.224Z,1005.3
2018-08-23T02:15:16.326Z,1005.3
2018-08-23T02:16:18.720Z,1005.3
2018-08-23T02:17:21.486Z,1005.3
2018-08-23T02:18:23.569Z,1005.3
2018-08-23T02:19:25.691Z,1005.3
2018-08-23T02:20:27.771Z,1005.3
2018-08-23T02:21:29.868Z,1005.3
2018-08-23T02:22:31.964Z,1005.3
2018-08-23T02:23:34.056Z,1005.3
2018-08-23T02:24:36.547Z,1005.2
2018-08-23T02:25:38.634Z,1005.3
2018-08-23T02:26:40.744Z,1005.3
2018-08-23T02:27:42.839Z,1005.2
2018-08-23T02:28:44.912Z,1005.2
2018-08-23T02:29:47.406Z,1005.2
2018-08-23T02:30:49.782Z,1005.2
2018-08-23T02:31:52.153Z,1005.2
2018-08-23T02:32:54.244Z,1005.2
2018-08-23T02:33:56.344Z,1005.2
2018-08-23T02:34:58.459Z,1005.2
2018-08-23T02:36:00.544Z,1005.2
2018-08-23T02:37:03.251Z,1005.2
2018-08-23T02:38:05.701Z,1005.1
2018-08-23T02:39:08.509Z,1005.2
2018-08-23T02:40:10.911Z,1005.1
2018-08-23T02:41:13.689Z,1005.1
2018-08-23T02:42:15.801Z,1005.1
2018-08-23T02:43:17.892Z,1005.1
2018-08-23T02:44:19.993Z,1005.1
2018-08-23T02:45:22.108Z,1005.1
2018-08-23T02:46:24.482Z,1005
2018-08-23T02:47:26.594Z,1005
2018-08-23T02:48:29.083Z,1005
2018-08-23T02:49:31.193Z,1005
2018-08-23T02:50:33.571Z,1005
2018-08-23T02:51:35.969Z,1005.1
2018-08-23T02:52:38.645Z,1005
2018-08-23T02:53:40.735Z,1005
2018-08-23T02:54:43.825Z,1005
2018-08-23T02:55:46.204Z,1005
2018-08-23T02:56:48.307Z,1005
2018-08-23T02:57:51.016Z,1005
2018-08-23T02:58:53.119Z,1005
2018-08-23T02:59:55.209Z,1005
2018-08-23T03:00:57.314Z,1005
2018-08-23T03:01:59.408Z,1005
2018-08-23T03:03:02.193Z,1005
2018-08-23T03:04:04.591Z,1005
2018-08-23T03:05:07.003Z,1005
2018-08-23T03:06:09.095Z,1005
2018-08-23T03:07:11.499Z,1004.9
2018-08-23T03:08:13.892Z,1005
2018-08-23T03:09:16.276Z,1005
2018-08-23T03:10:18.374Z,1005
2018-08-23T03:11:20.490Z,1005
2018-08-23T03:12:22.588Z,1005
2018-08-23T03:13:25.364Z,1005
2018-08-23T03:14:27.458Z,1005
2018-08-23T03:15:29.955Z,1005
2018-08-23T03:16:32.049Z,1005
2018-08-23T03:17:34.829Z,1005
2018-08-23T03:18:36.938Z,1005
2018-08-23T03:19:39.023Z,1005
2018-08-23T03:20:41.131Z,1005
2018-08-23T03:21:43.232Z,1004.9
2018-08-23T03:22:45.337Z,1004.9
2018-08-23T03:23:47.424Z,1004.9
2018-08-23T03:24:49.534Z,1005
2018-08-23T03:25:52.015Z,1004.9
2018-08-23T03:26:54.110Z,1004.9
2018-08-23T03:27:56.513Z,1004.9
2018-08-23T03:28:59.283Z,1004.9
2018-08-23T03:30:01.771Z,1004.9
2018-08-23T03:31:04.180Z,1004.9
2018-08-23T03:32:06.737Z,1004.9
2018-08-23T03:33:09.149Z,1004.9
2018-08-23T03:34:11.253Z,1004.9
2018-08-23T03:35:13.346Z,1004.9
2018-08-23T03:36:15.444Z,1004.9
2018-08-23T03:37:17.562Z,1004.9
2018-08-23T03:38:19.662Z,1004.9
2018-08-23T03:39:21.752Z,1004.8
2018-08-23T03:40:23.870Z,1004.8
2018-08-23T03:41:25.963Z,1004.9
2018-08-23T03:42:28.751Z,1004.9
2018-08-23T03:43:31.158Z,1004.9
2018-08-23T03:44:33.532Z,1004.8
2018-08-23T03:45:36.027Z,1004.9
2018-08-23T03:46:39.378Z,1004.9
2018-08-23T03:47:41.489Z,1004.8
2018-08-23T03:48:43.579Z,1004.8
2018-08-23T03:49:45.692Z,1004.8
2018-08-23T03:50:47.792Z,1004.8
2018-08-23T03:51:49.886Z,1004.8
2018-08-23T03:52:52.291Z,1004.8
2018-08-23T03:53:54.711Z,1004.8
2018-08-23T03:54:56.810Z,1004.8
2018-08-23T03:55:58.907Z,1004.8
2018-08-23T03:57:01.016Z,1004.8
2018-08-23T03:58:03.788Z,1004.9
2018-08-23T03:59:06.181Z,1004.8
2018-08-23T04:00:08.283Z,1004.8
2018-08-23T04:01:10.367Z,1004.8
2018-08-23T04:02:12.866Z,1004.8
2018-08-23T04:03:15.359Z,1004.8
2018-08-23T04:04:17.451Z,1004.8
2018-08-23T04:05:19.555Z,1004.8
2018-08-23T04:06:21.667Z,1004.8
2018-08-23T04:07:23.763Z,1004.8
2018-08-23T04:08:25.870Z,1004.8
2018-08-23T04:09:28.358Z,1004.8
2018-08-23T04:10:30.731Z,1004.8
2018-08-23T04:11:32.828Z,1004.8
2018-08-23T04:12:35.224Z,1004.8
2018-08-23T04:13:37.320Z,1004.8
2018-08-23T04:14:40.021Z,1004.8
2018-08-23T04:15:42.430Z,1004.8
2018-08-23T04:16:44.524Z,1004.8
2018-08-23T04:17:46.638Z,1004.8
2018-08-23T04:18:48.737Z,1004.8
2018-08-23T04:19:50.835Z,1004.8
2018-08-23T04:20:52.929Z,1004.8
2018-08-23T04:21:55.670Z,1004.8
2018-08-23T04:22:57.820Z,1004.7
2018-08-23T04:24:00.353Z,1004.8
2018-08-23T04:25:02.855Z,1004.8
2018-08-23T04:26:05.348Z,1004.7
2018-08-23T04:27:07.439Z,1004.8
2018-08-23T04:28:09.826Z,1004.8
2018-08-23T04:29:11.921Z,1004.8
2018-08-23T04:30:14.033Z,1004.8
2018-08-23T04:31:16.122Z,1004.8
2018-08-23T04:32:18.227Z,1004.8
2018-08-23T04:33:20.340Z,1004.8
2018-08-23T04:34:23.007Z,1004.8
2018-08-23T04:35:25.125Z,1004.8
2018-08-23T04:36:27.226Z,1004.8
2018-08-23T04:37:29.613Z,1004.8
2018-08-23T04:38:32.002Z,1004.8
2018-08-23T04:39:34.499Z,1004.8
2018-08-23T04:40:36.595Z,1004.7
2018-08-23T04:41:38.706Z,1004.7
2018-08-23T04:42:40.806Z,1004.7
2018-08-23T04:43:42.905Z,1004.7
2018-08-23T04:44:45.399Z,1004.7
2018-08-23T04:45:47.798Z,1004.7
2018-08-23T04:46:49.885Z,1004.7
2018-08-23T04:47:52.287Z,1004.7
2018-08-23T04:48:54.396Z,1004.7
2018-08-23T04:49:56.790Z,1004.7
2018-08-23T04:50:58.894Z,1004.7
2018-08-23T04:52:00.994Z,1004.6
2018-08-23T04:53:03.102Z,1004.7
2018-08-23T04:54:05.191Z,1004.6
2018-08-23T04:55:07.303Z,1004.7
2018-08-23T04:56:09.393Z,1004.7
2018-08-23T04:57:11.497Z,1004.7
2018-08-23T04:58:13.615Z,1004.6
2018-08-23T04:59:15.993Z,1004.6
2018-08-23T05:00:18.499Z,1004.6
2018-08-23T05:01:20.615Z,1004.7
2018-08-23T05:02:22.719Z,1004.6
2018-08-23T05:03:24.815Z,1004.6
2018-08-23T05:04:26.919Z,1004.6
2018-08-23T05:05:29.021Z,1004.6
2018-08-23T05:06:31.125Z,1004.6
2018-08-23T05:07:33.209Z,1004.6
2018-08-23T05:08:35.320Z,1004.6
2018-08-23T05:09:38.095Z,1004.6
2018-08-23T05:10:40.187Z,1004.5
2018-08-23T05:11:42.282Z,1004.5
2018-08-23T05:12:44.685Z,1004.5
2018-08-23T05:13:47.072Z,1004.5
2018-08-23T05:14:49.185Z,1004.5
2018-08-23T05:15:51.287Z,1004.5
2018-08-23T05:16:53.672Z,1004.5
2018-08-23T05:17:55.773Z,1004.5
2018-08-23T05:18:58.277Z,1004.5
2018-08-23T05:20:00.664Z,1004.5
2018-08-23T05:21:03.163Z,1004.5
2018-08-23T05:22:05.939Z,1004.5
2018-08-23T05:23:08.038Z,1004.5
2018-08-23T05:24:10.561Z,1004.5
2018-08-23T05:25:12.955Z,1004.4
2018-08-23T05:26:15.059Z,1004.4
2018-08-23T05:27:17.154Z,1004.4
2018-08-23T05:28:19.946Z,1004.4
2018-08-23T05:29:22.621Z,1004.4
2018-08-23T05:30:24.719Z,1004.4
2018-08-23T05:31:26.826Z,1004.4
2018-08-23T05:32:28.917Z,1004.4
2018-08-23T05:33:31.023Z,1004.4
2018-08-23T05:34:33.142Z,1004.4
2018-08-23T05:35:35.248Z,1004.4
2018-08-23T05:36:37.338Z,1004.4
2018-08-23T05:37:39.448Z,1004.4
2018-08-23T05:38:41.543Z,1004.4
2018-08-23T05:39:43.644Z,1004.4
2018-08-23T05:40:45.770Z,1004.4
2018-08-23T05:41:48.164Z,1004.3
2018-08-23T05:42:50.265Z,1004.3
2018-08-23T05:43:52.362Z,1004.3
2018-08-23T05:44:54.466Z,1004.3
2018-08-23T05:45:56.960Z,1004.3
2018-08-23T05:46:59.350Z,1004.4
2018-08-23T05:48:01.459Z,1004.3
2018-08-23T05:49:03.953Z,1004.3
2018-08-23T05:50:06.043Z,1004.4
2018-08-23T05:51:08.147Z,1004.4
2018-08-23T05:52:10.568Z,1004.4
2018-08-23T05:53:12.662Z,1004.4
2018-08-23T05:54:14.770Z,1004.4
2018-08-23T05:55:17.164Z,1004.4
2018-08-23T05:56:19.253Z,1004.4
2018-08-23T05:57:21.368Z,1004.4
2018-08-23T05:58:23.464Z,1004.4
2018-08-23T05:59:25.563Z,1004.4
2018-08-23T06:00:27.656Z,1004.4
2018-08-23T06:01:29.767Z,1004.4
2018-08-23T06:02:31.861Z,1004.3
2018-08-23T06:03:34.259Z,1004.3
2018-08-23T06:04:36.368Z,1004.4
2018-08-23T06:05:38.455Z,1004.3
2018-08-23T06:06:40.566Z,1004.3
2018-08-23T06:07:42.667Z,1004.3
2018-08-23T06:08:44.776Z,1004.3
2018-08-23T06:09:46.864Z,1004.3
2018-08-23T06:10:48.979Z,1004.3
2018-08-23T06:11:51.076Z,1004.3
2018-08-23T06:12:53.170Z,1004.3
2018-08-23T06:13:55.283Z,1004.3
2018-08-23T06:14:57.375Z,1004.3
2018-08-23T06:15:59.477Z,1004.3
2018-08-23T06:17:01.593Z,1004.3
2018-08-23T06:18:03.706Z,1004.3
2018-08-23T06:19:05.802Z,1004.3
2018-08-23T06:20:08.230Z,1004.3
2018-08-23T06:21:11.156Z,1004.3
2018-08-23T06:22:13.255Z,1004.3
2018-08-23T06:23:15.367Z,1004.3
2018-08-23T06:24:17.473Z,1004.3
2018-08-23T06:25:19.855Z,1004.3
2018-08-23T06:26:22.357Z,1004.3
2018-08-23T06:27:24.544Z,1004.3
2018-08-23T06:28:26.560Z,1004.3
2018-08-23T06:29:28.962Z,1004.4
2018-08-23T06:30:31.435Z,1004.3
2018-08-23T06:31:33.545Z,1004.3
2018-08-23T06:32:35.948Z,1004.3
2018-08-23T06:33:38.166Z,1004.3
2018-08-23T06:34:41.645Z,1004.3
2018-08-23T06:35:43.840Z,1004.3
2018-08-23T06:36:45.855Z,1004.3
2018-08-23T06:37:47.947Z,1004.3
2018-08-23T06:38:50.146Z,1004.3
2018-08-23T06:39:52.169Z,1004.3
2018-08-23T06:40:54.567Z,1004.2
2018-08-23T06:41:56.666Z,1004.2
2018-08-23T06:42:59.067Z,1004.2
2018-08-23T06:44:01.171Z,1004.2
2018-08-23T06:45:03.278Z,1004.2
2018-08-23T06:46:05.420Z,1004.2
2018-08-23T06:47:07.914Z,1004.1
2018-08-23T06:48:10.026Z,1004.2
2018-08-23T06:49:12.517Z,1004.2
2018-08-23T06:50:14.615Z,1004.2
2018-08-23T06:51:16.812Z,1004.2
2018-08-23T06:52:19.663Z,1004.2
2018-08-23T06:53:21.765Z,1004.2
2018-08-23T06:54:23.880Z,1004.2
2018-08-23T06:55:25.989Z,1004.2
2018-08-23T06:56:28.087Z,1004.2
2018-08-23T06:57:30.490Z,1004.2
2018-08-23T06:58:32.588Z,1004.1
2018-08-23T06:59:34.705Z,1004.1
2018-08-23T07:00:36.803Z,1004.1
2018-08-23T07:01:39.596Z,1004.2
2018-08-23T07:02:42.005Z,1004.2
2018-08-23T07:03:44.093Z,1004.1
2018-08-23T07:04:46.570Z,1004.1
2018-08-23T07:05:49.065Z,1004.1
2018-08-23T07:06:51.295Z,1004.1
2018-08-23T07:07:53.753Z,1004.1
2018-08-23T07:08:55.861Z,1004.1
2018-08-23T07:09:57.968Z,1004.1
2018-08-23T07:11:00.070Z,1004.1
2018-08-23T07:12:02.191Z,1004.1
2018-08-23T07:13:04.289Z,1004.1
2018-08-23T07:14:06.704Z,1004.1
2018-08-23T07:15:08.810Z,1004.1
2018-08-23T07:16:10.924Z,1004
2018-08-23T07:17:13.098Z,1004
2018-08-23T07:18:15.135Z,1004
2018-08-23T07:19:17.250Z,1004
2018-08-23T07:20:20.011Z,1004.1
2018-08-23T07:21:22.126Z,1004.1
2018-08-23T07:22:24.234Z,1004.1
2018-08-23T07:23:27.089Z,1004.1
2018-08-23T07:24:29.198Z,1004
2018-08-23T07:25:31.313Z,1004.1
2018-08-23T07:26:33.414Z,1004
2018-08-23T07:27:35.529Z,1004.1
2018-08-23T07:28:37.923Z,1004
2018-08-23T07:29:40.615Z,1004.1
2018-08-23T07:30:42.714Z,1004.1
2018-08-23T07:31:44.826Z,1004.1
2018-08-23T07:32:46.920Z,1004.1
2018-08-23T07:33:49.032Z,1004.1
2018-08-23T07:34:51.440Z,1004.1
2018-08-23T07:35:53.564Z,1004.1
2018-08-23T07:36:56.051Z,1004.1
2018-08-23T07:37:58.151Z,1004.1
2018-08-23T07:39:00.255Z,1004.1
2018-08-23T07:40:02.662Z,1004.1
2018-08-23T07:41:04.786Z,1004.1
2018-08-23T07:42:06.881Z,1004.1
2018-08-23T07:43:09.074Z,1004.1
2018-08-23T07:44:12.389Z,1004.1
2018-08-23T07:45:14.481Z,1004.1
2018-08-23T07:46:17.579Z,1004.1
2018-08-23T07:47:19.985Z,1004.1
2018-08-23T07:48:22.098Z,1004.1
2018-08-23T07:49:24.218Z,1004.1
2018-08-23T07:50:26.307Z,1004.1
2018-08-23T07:51:28.409Z,1004.1
2018-08-23T07:52:30.592Z,1004.1
2018-08-23T07:53:32.823Z,1004.1
2018-08-23T07:54:34.726Z,1004.1
2018-08-23T07:55:36.834Z,1004.1
2018-08-23T07:56:38.948Z,1004.1
2018-08-23T07:57:41.052Z,1004.1
2018-08-23T07:58:43.151Z,1004.1
2018-08-23T07:59:45.268Z,1004.1
2018-08-23T08:00:47.761Z,1004.1
2018-08-23T08:01:49.870Z,1004.1
2018-08-23T08:02:51.985Z,1004
2018-08-23T08:03:54.099Z,1004
2018-08-23T08:04:56.196Z,1004.1
2018-08-23T08:05:58.600Z,1004.1
2018-08-23T08:07:00.703Z,1004
2018-08-23T08:08:02.810Z,1004
2018-08-23T08:09:04.928Z,1004
2018-08-23T08:10:07.024Z,1004
2018-08-23T08:11:09.139Z,1004.1
2018-08-23T08:12:11.254Z,1004
2018-08-23T08:13:13.372Z,1004
2018-08-23T08:14:15.477Z,1004
2018-08-23T08:15:17.702Z,1004
2018-08-23T08:16:20.360Z,1004
2018-08-23T08:17:22.473Z,1004
2018-08-23T08:18:24.564Z,1004
2018-08-23T08:19:26.688Z,1004
2018-08-23T08:20:28.798Z,1004
2018-08-23T08:21:30.925Z,1004
2018-08-23T08:22:33.014Z,1004
2018-08-23T08:23:35.128Z,1004
2018-08-23T08:24:37.231Z,1004
2018-08-23T08:25:39.348Z,1004.1
2018-08-23T08:26:41.474Z,1004.1
2018-08-23T08:27:43.574Z,1004.1
2018-08-23T08:28:45.680Z,1004.1
2018-08-23T08:29:47.794Z,1004.1
2018-08-23T08:30:49.901Z,1004.1
2018-08-23T08:31:52.001Z,1004.1
2018-08-23T08:32:54.115Z,1004.1
2018-08-23T08:33:56.212Z,1004.1
2018-08-23T08:34:58.610Z,1004.1
2018-08-23T08:36:01.026Z,1004.1
2018-08-23T08:37:03.131Z,1004.1
2018-08-23T08:38:05.237Z,1004.1
2018-08-23T08:39:07.354Z,1004.1
2018-08-23T08:40:09.457Z,1004.1
2018-08-23T08:41:11.562Z,1004
2018-08-23T08:42:13.683Z,1004
2018-08-23T08:43:16.065Z,1004
2018-08-23T08:44:18.489Z,1004
2018-08-23T08:45:20.600Z,1004
2018-08-23T08:46:22.715Z,1004
2018-08-23T08:47:24.819Z,1004
2018-08-23T08:48:26.940Z,1004
2018-08-23T08:49:29.493Z,1004
2018-08-23T08:50:31.991Z,1004
2018-08-23T08:51:34.031Z,1004
2018-08-23T08:52:36.417Z,1004
2018-08-23T08:53:38.523Z,1004
2018-08-23T08:54:40.921Z,1004
2018-08-23T08:55:43.045Z,1004
2018-08-23T08:56:45.234Z,1003.9
2018-08-23T08:57:48.233Z,1004
2018-08-23T08:58:50.253Z,1003.9
2018-08-23T08:59:52.351Z,1004
2018-08-23T09:00:54.474Z,1004
2018-08-23T09:01:57.289Z,1004
2018-08-23T09:02:59.784Z,1004
2018-08-23T09:04:02.262Z,1004
2018-08-23T09:05:04.376Z,1004
2018-08-23T09:06:06.484Z,1004
2018-08-23T09:07:08.604Z,1004
2018-08-23T09:08:11.032Z,1004
2018-08-23T09:09:13.138Z,1004
2018-08-23T09:10:15.542Z,1004
2018-08-23T09:11:17.662Z,1004
2018-08-23T09:12:20.081Z,1003.9
2018-08-23T09:13:22.199Z,1004
2018-08-23T09:14:24.723Z,1004
2018-08-23T09:15:27.113Z,1003.9
2018-08-23T09:16:29.240Z,1003.9
2018-08-23T09:17:31.400Z,1003.9
2018-08-23T09:18:33.779Z,1003.8
2018-08-23T09:19:36.895Z,1003.9
2018-08-23T09:20:39.085Z,1003.8
2018-08-23T09:21:41.121Z,1003.9
2018-08-23T09:22:43.232Z,1003.9
2018-08-23T09:23:45.354Z,1003.8
2018-08-23T09:24:47.741Z,1003.8
2018-08-23T09:25:50.161Z,1003.8
2018-08-23T09:26:52.277Z,1003.8
2018-08-23T09:27:54.689Z,1003.8
2018-08-23T09:28:56.789Z,1003.8
2018-08-23T09:29:58.908Z,1003.7
2018-08-23T09:31:01.024Z,1003.7
2018-08-23T09:32:03.204Z,1003.7
2018-08-23T09:33:05.246Z,1003.7
2018-08-23T09:34:07.663Z,1003.7
2018-08-23T09:35:10.224Z,1003.7
2018-08-23T09:36:12.261Z,1003.6
2018-08-23T09:37:14.378Z,1003.7
2018-08-23T09:38:16.504Z,1003.7
2018-08-23T09:39:18.922Z,1003.7
2018-08-23T09:40:21.447Z,1003.7
2018-08-23T09:41:23.573Z,1003.7
2018-08-23T09:42:25.969Z,1003.7
2018-08-23T09:43:28.088Z,1003.6
2018-08-23T09:44:30.509Z,1003.7
2018-08-23T09:45:32.616Z,1003.7
2018-08-23T09:46:34.736Z,1003.7
2018-08-23T09:47:36.855Z,1003.7
2018-08-23T09:48:38.963Z,1003.6
2018-08-23T09:49:41.488Z,1003.6
2018-08-23T09:50:43.607Z,1003.6
2018-08-23T09:51:45.721Z,1003.6
2018-08-23T09:52:47.839Z,1003.6
2018-08-23T09:53:50.362Z,1003.6
2018-08-23T09:54:52.471Z,1003.5
2018-08-23T09:55:54.590Z,1003.5
2018-08-23T09:56:57.012Z,1003.5
2018-08-23T09:57:59.789Z,1003.5
2018-08-23T09:59:02.922Z,1003.5
2018-08-23T10:00:05.053Z,1003.5
2018-08-23T10:01:07.159Z,1003.5
2018-08-23T10:02:09.268Z,1003.5
2018-08-23T10:03:11.788Z,1003.5
2018-08-23T10:04:13.971Z,1003.5
2018-08-23T10:05:16.395Z,1003.5
2018-08-23T10:06:18.527Z,1003.5
2018-08-23T10:07:20.932Z,1003.5
2018-08-23T10:08:23.049Z,1003.4
2018-08-23T10:09:25.491Z,1003.5
2018-08-23T10:10:27.607Z,1003.4
2018-08-23T10:11:30.147Z,1003.4
2018-08-23T10:12:32.156Z,1003.4
2018-08-23T10:13:34.574Z,1003.4
2018-08-23T10:14:36.697Z,1003.4
2018-08-23T10:15:38.806Z,1003.4
2018-08-23T10:16:40.944Z,1003.4
2018-08-23T10:17:43.071Z,1003.4
2018-08-23T10:18:45.177Z,1003.4
2018-08-23T10:19:47.305Z,1003.4
2018-08-23T10:20:49.431Z,1003.4
2018-08-23T10:21:51.543Z,1003.4
2018-08-23T10:22:54.068Z,1003.3
2018-08-23T10:23:56.571Z,1003.3
2018-08-23T10:24:58.690Z,1003.3
2018-08-23T10:26:00.800Z,1003.3
2018-08-23T10:27:02.927Z,1003.3
2018-08-23T10:28:05.039Z,1003.3
2018-08-23T10:29:07.160Z,1003.3
2018-08-23T10:30:09.290Z,1003.3
2018-08-23T10:31:11.394Z,1003.2
2018-08-23T10:32:14.322Z,1003.2
2018-08-23T10:33:16.784Z,1003.3
2018-08-23T10:34:18.909Z,1003.2
2018-08-23T10:35:21.021Z,1003.2
2018-08-23T10:36:23.150Z,1003.2
2018-08-23T10:37:25.944Z,1003.2
2018-08-23T10:38:28.060Z,1003.2
2018-08-23T10:39:30.489Z,1003.1
2018-08-23T10:40:32.636Z,1003.1
2018-08-23T10:41:34.722Z,1003.1
2018-08-23T10:42:36.844Z,1003.1
2018-08-23T10:43:39.567Z,1003.1
2018-08-23T10:44:42.845Z,1003.1
2018-08-23T10:45:44.984Z,1003.1
2018-08-23T10:46:47.121Z,1003.1
2018-08-23T10:47:49.237Z,1003.1
2018-08-23T10:48:51.718Z,1003.1
2018-08-23T10:49:53.834Z,1003.1
2018-08-23T10:50:55.980Z,1003.2
2018-08-23T10:51:58.073Z,1003.1
2018-08-23T10:53:00.201Z,1003.1
2018-08-23T10:54:02.335Z,1003.1
2018-08-23T10:55:04.732Z,1003.1
2018-08-23T10:56:06.864Z,1003.1
2018-08-23T10:57:08.979Z,1003.1
2018-08-23T10:58:11.100Z,1003
2018-08-23T10:59:13.679Z,1003.1
2018-08-23T11:00:16.046Z,1003
2018-08-23T11:01:18.546Z,1003
2018-08-23T11:02:20.983Z,1003
2018-08-23T11:03:23.115Z,1003
2018-08-23T11:04:25.223Z,1003
2018-08-23T11:05:27.352Z,1003
2018-08-23T11:06:29.469Z,1003
2018-08-23T11:07:31.598Z,1003
2018-08-23T11:08:33.708Z,1003
2018-08-23T11:09:36.265Z,1002.9
2018-08-23T11:10:38.702Z,1002.9
2018-08-23T11:11:41.110Z,1003
2018-08-23T11:12:43.245Z,1003
2018-08-23T11:13:45.356Z,1003
2018-08-23T11:14:47.482Z,1002.9
2018-08-23T11:15:49.614Z,1002.9
2018-08-23T11:16:51.838Z,1002.9
2018-08-23T11:17:53.851Z,1002.9
2018-08-23T11:18:55.982Z,1003
2018-08-23T11:19:58.092Z,1003
2018-08-23T11:21:00.213Z,1003
2018-08-23T11:22:02.347Z,1002.9
2018-08-23T11:23:04.508Z,1002.9
2018-08-23T11:24:06.955Z,1002.9
2018-08-23T11:25:09.091Z,1002.8
2018-08-23T11:26:11.204Z,1002.9
2018-08-23T11:27:13.321Z,1002.8
2018-08-23T11:28:16.143Z,1002.9
2018-08-23T11:29:18.249Z,1002.8
2018-08-23T11:30:20.374Z,1002.9
2018-08-23T11:31:22.493Z,1002.8
2018-08-23T11:32:24.622Z,1002.8
2018-08-23T11:33:26.732Z,1002.8
2018-08-23T11:34:29.167Z,1002.8
2018-08-23T11:35:31.289Z,1002.8
2018-08-23T11:36:33.400Z,1002.8
2018-08-23T11:37:35.533Z,1002.8
2018-08-23T11:38:37.642Z,1002.8
2018-08-23T11:39:39.761Z,1002.8
2018-08-23T11:40:41.881Z,1002.7
2018-08-23T11:41:44.021Z,1002.7
2018-08-23T11:42:46.927Z,1002.7
2018-08-23T11:43:48.941Z,1002.7
2018-08-23T11:44:51.368Z,1002.6
2018-08-23T11:45:53.472Z,1002.7
2018-08-23T11:46:55.613Z,1002.7
2018-08-23T11:47:57.726Z,1002.7
2018-08-23T11:48:59.928Z,1002.7
2018-08-23T11:50:02.435Z,1002.7
2018-08-23T11:51:04.876Z,1002.7
2018-08-23T11:52:06.994Z,1002.6
2018-08-23T11:53:09.234Z,1002.7
2018-08-23T11:54:11.651Z,1002.7
2018-08-23T11:55:14.158Z,1002.6
2018-08-23T11:56:16.671Z,1002.6
2018-08-23T11:57:18.799Z,1002.6
2018-08-23T11:58:20.909Z,1002.6
2018-08-23T11:59:23.034Z,1002.6
2018-08-23T12:00:25.458Z,1002.6
2018-08-23T12:01:27.580Z,1002.6
2018-08-23T12:02:29.750Z,1002.6
2018-08-23T12:03:31.814Z,1002.6
2018-08-23T12:04:33.930Z,1002.5
2018-08-23T12:05:36.063Z,1002.6
2018-08-23T12:06:38.968Z,1002.5
2018-08-23T12:07:41.003Z,1002.5
2018-08-23T12:08:43.540Z,1002.5
2018-08-23T12:09:45.705Z,1002.5
2018-08-23T12:10:47.789Z,1002.5
2018-08-23T12:11:49.896Z,1002.5
2018-08-23T12:12:52.020Z,1002.5
2018-08-23T12:13:54.516Z,1002.4
2018-08-23T12:14:56.642Z,1002.5
2018-08-23T12:15:58.757Z,1002.4
2018-08-23T12:17:01.555Z,1002.4
2018-08-23T12:18:03.682Z,1002.4
2018-08-23T12:19:05.792Z,1002.3
2018-08-23T12:20:08.238Z,1002.3
2018-08-23T12:21:10.747Z,1002.3
2018-08-23T12:22:12.858Z,1002.3
2018-08-23T12:23:14.981Z,1002.3
2018-08-23T12:24:17.109Z,1002.3
2018-08-23T12:25:19.228Z,1002.3
2018-08-23T12:26:21.395Z,1002.3
2018-08-23T12:27:23.637Z,1002.2
2018-08-23T12:28:25.747Z,1002.3
2018-08-23T12:29:27.874Z,1002.3
2018-08-23T12:30:30.004Z,1002.3
2018-08-23T12:31:32.419Z,1002.2
2018-08-23T12:32:34.534Z,1002.3
2018-08-23T12:33:36.661Z,1002.2
2018-08-23T12:34:39.063Z,1002.1
2018-08-23T12:35:41.196Z,1002.2
2018-08-23T12:36:43.305Z,1002.2
2018-08-23T12:37:46.137Z,1002.2
2018-08-23T12:38:48.252Z,1002.2
2018-08-23T12:39:50.378Z,1002.3
2018-08-23T12:40:52.829Z,1002.3
2018-08-23T12:41:55.324Z,1002.3
2018-08-23T12:42:57.729Z,1002.2
2018-08-23T12:43:59.868Z,1002.2
2018-08-23T12:45:01.987Z,1002.2
2018-08-23T12:46:04.402Z,1002.1
2018-08-23T12:47:06.520Z,1002.1
2018-08-23T12:48:08.662Z,1002.2
2018-08-23T12:49:11.074Z,1002.1
2018-08-23T12:50:13.542Z,1002.2
2018-08-23T12:51:15.674Z,1002.2
2018-08-23T12:52:17.787Z,1002.1
2018-08-23T12:53:19.972Z,1002.1
2018-08-23T12:54:22.054Z,1002.1
2018-08-23T12:55:24.456Z,1002.2
2018-08-23T12:56:26.680Z,1002.1
2018-08-23T12:57:28.706Z,1002.1
2018-08-23T12:58:30.822Z,1002
2018-08-23T12:59:32.953Z,1002.1
2018-08-23T13:00:35.367Z,1002.2
2018-08-23T13:01:37.879Z,1002.1
2018-08-23T13:02:40.175Z,1002.1
2018-08-23T13:03:43.405Z,1002.1
2018-08-23T13:04:45.506Z,1002.1